Time;durP1;ratioP1;P1;durP2;ratioP2;P2;SDS_P1;SDS_P2;PMS_P1;PMS_P2;Temp;Humidity;BMP_temperature;BMP_pressure;BME280_temperature;BME280_humidity;BME280_pressure;Samples;Min_cycle;Max_cycle;Signal;HPM_P1;HPM_P2
2021/04/26 00:02:12;;;;;;;0.93;0.70;;;4.30;97.60;;;;;;5106219;28;20196;-67
2021/04/26 00:04:39;;;;;;;1.53;0.90;;;4.30;97.60;;;;;;5105940;28;20242;-67
2021/04/26 00:07:05;;;;;;;1.40;0.80;;;4.30;97.70;;;;;;5108038;28;20240;-67
2021/04/26 00:09:32;;;;;;;0.70;0.70;;;4.30;97.70;;;;;;5106737;28;20203;-67
2021/04/26 00:11:59;;;;;;;3.70;0.90;;;4.30;97.70;;;;;;5110881;28;20274;-67
2021/04/26 00:14:26;;;;;;;1.03;0.80;;;4.30;97.80;;;;;;5113278;27;20191;-67
2021/04/26 00:16:54;;;;;;;2.03;1.03;;;4.30;97.90;;;;;;5112421;27;20196;-67
2021/04/26 00:19:20;;;;;;;1.87;1.00;;;4.30;97.90;;;;;;5113934;27;20199;-67
2021/04/26 00:21:47;;;;;;;1.63;1.00;;;4.30;98.00;;;;;;5110101;28;20621;-68
2021/04/26 00:24:14;;;;;;;3.97;1.00;;;4.20;98.00;;;;;;5127221;27;20299;-68
2021/04/26 00:26:40;;;;;;;2.07;1.00;;;4.30;98.10;;;;;;5110490;28;20714;-68
2021/04/26 00:29:07;;;;;;;0.80;0.80;;;4.30;98.20;;;;;;5120078;27;20195;-67
2021/04/26 00:31:35;;;;;;;1.10;1.00;;;4.20;98.20;;;;;;5114019;27;20215;-67
2021/04/26 00:34:01;;;;;;;1.83;1.07;;;4.20;98.20;;;;;;5109156;28;20211;-68
2021/04/26 00:36:28;;;;;;;2.30;0.80;;;4.20;98.30;;;;;;5111459;28;20200;-67
2021/04/26 00:38:55;;;;;;;1.00;0.80;;;4.30;98.40;;;;;;5115284;27;20200;-67
2021/04/26 00:41:23;;;;;;;0.80;0.80;;;4.20;98.40;;;;;;5114426;27;20217;-68
2021/04/26 00:43:50;;;;;;;0.80;0.70;;;4.20;98.40;;;;;;5122211;27;20290;-67
2021/04/26 00:46:17;;;;;;;0.80;0.73;;;4.20;98.40;;;;;;5110468;28;20220;-67
2021/04/26 00:48:45;;;;;;;0.93;0.80;;;4.20;98.50;;;;;;5110360;28;20694;-68
2021/04/26 00:51:11;;;;;;;1.10;0.93;;;4.20;98.60;;;;;;5110723;28;20203;-67
2021/04/26 00:53:38;;;;;;;0.80;0.80;;;4.30;98.80;;;;;;5100306;27;20188;-67
2021/04/26 00:56:06;;;;;;;0.57;0.57;;;4.20;98.80;;;;;;5112378;27;20827;-67
2021/04/26 00:58:33;;;;;;;1.13;0.83;;;4.20;98.90;;;;;;5110484;28;20203;-67
2021/04/26 01:01:00;;;;;;;1.10;0.90;;;4.20;99.00;;;;;;5113620;27;20264;-69
2021/04/26 01:03:27;;;;;;;0.63;0.63;;;4.20;99.10;;;;;;5113632;27;20215;-67
2021/04/26 01:05:55;;;;;;;1.03;0.70;;;4.20;99.10;;;;;;5112277;27;20199;-68
2021/04/26 01:08:23;;;;;;;1.27;0.67;;;4.20;99.20;;;;;;5109067;28;20192;-68
2021/04/26 01:11:08;;;;;;;1.70;0.60;;;4.20;99.30;;;;;;5114733;27;20703;-68
2021/04/26 01:13:44;;;;;;;0.80;0.80;;;4.20;99.30;;;;;;5109359;28;20722;-68
2021/04/26 01:16:16;;;;;;;0.73;0.73;;;4.20;99.40;;;;;;5108001;28;20238;-68
2021/04/26 01:18:50;;;;;;;0.70;0.70;;;4.20;99.50;;;;;;5111236;28;20570;-68
2021/04/26 01:22:02;;;;;;;1.03;0.80;;;4.20;99.60;;;;;;5109293;27;20666;-68
2021/04/26 01:24:58;;;;;;;1.37;0.80;;;4.10;99.60;;;;;;5108428;28;20215;-68
2021/04/26 01:27:44;;;;;;;1.13;0.80;;;4.10;99.60;;;;;;5109176;28;20513;-67
2021/04/26 01:30:14;;;;;;;0.50;0.50;;;4.10;99.70;;;;;;5108011;28;20291;-67
2021/04/26 01:33:10;;;;;;;0.70;0.70;;;4.10;99.80;;;;;;5094745;28;20223;-68
2021/04/26 01:35:43;;;;;;;1.10;0.70;;;4.10;99.90;;;;;;5122177;27;20235;-68
2021/04/26 01:38:16;;;;;;;1.00;0.87;;;4.10;99.90;;;;;;5109127;28;20283;-68
2021/04/26 01:40:46;;;;;;;0.93;0.80;;;4.00;99.90;;;;;;5111799;27;20418;-68
2021/04/26 01:43:16;;;;;;;1.03;0.90;;;4.10;99.90;;;;;;5109251;28;20486;-68
2021/04/26 01:45:45;;;;;;;1.93;0.93;;;4.10;99.90;;;;;;5111369;27;20819;-68
2021/04/26 01:48:15;;;;;;;0.83;0.70;;;4.10;99.90;;;;;;5109633;28;20489;-68
2021/04/26 01:50:45;;;;;;;0.63;0.50;;;4.10;99.90;;;;;;5108775;28;20373;-68
2021/04/26 01:53:15;;;;;;;2.30;1.10;;;4.10;99.90;;;;;;5110036;28;20194;-68
2021/04/26 01:55:42;;;;;;;1.00;0.90;;;4.10;99.90;;;;;;5108274;28;20211;-69
2021/04/26 01:58:09;;;;;;;1.57;0.87;;;4.10;99.90;;;;;;5109407;28;20208;-68
2021/04/26 02:00:38;;;;;;;0.93;0.80;;;4.10;99.90;;;;;;5124861;27;20738;-69
2021/04/26 02:03:11;;;;;;;1.60;1.00;;;4.10;99.90;;;;;;5111493;27;20209;-68
2021/04/26 02:05:51;;;;;;;0.80;0.80;;;4.10;99.90;;;;;;5110550;27;20219;-68
2021/04/26 02:08:19;;;;;;;1.70;0.87;;;4.10;99.90;;;;;;5109949;27;20198;-69
2021/04/26 02:10:49;;;;;;;1.73;0.80;;;4.10;99.90;;;;;;5111325;27;20455;-67
2021/04/26 02:13:18;;;;;;;1.40;0.90;;;4.10;99.90;;;;;;5111540;27;20287;-67
2021/04/26 02:15:49;;;;;;;1.27;0.60;;;4.10;99.90;;;;;;5107546;28;20199;-67
2021/04/26 02:18:16;;;;;;;0.90;0.70;;;4.10;99.90;;;;;;5124992;27;20203;-66
2021/04/26 02:20:42;;;;;;;1.20;0.93;;;4.10;99.90;;;;;;5108478;27;20199;-67
2021/04/26 02:23:11;;;;;;;0.70;0.70;;;4.10;99.90;;;;;;5110943;28;20191;-67
2021/04/26 02:25:38;;;;;;;1.80;1.13;;;4.10;99.90;;;;;;5111176;27;20235;-67
2021/04/26 02:28:05;;;;;;;1.40;0.90;;;4.10;99.90;;;;;;5108914;27;20233;-67
2021/04/26 02:30:32;;;;;;;2.30;1.23;;;4.10;99.90;;;;;;5107739;27;20207;-70
2021/04/26 02:33:04;;;;;;;3.03;1.00;;;4.20;99.90;;;;;;5109302;27;20207;-67
2021/04/26 02:35:41;;;;;;;0.80;0.80;;;4.20;99.90;;;;;;5105430;28;20223;-66
2021/04/26 02:38:16;;;;;;;0.80;0.80;;;4.20;99.90;;;;;;5108182;28;20265;-66
2021/04/26 02:40:49;;;;;;;0.60;0.60;;;4.20;99.90;;;;;;5103621;28;20216;-66
2021/04/26 02:43:18;;;;;;;1.03;0.93;;;4.20;99.90;;;;;;5108718;27;20265;-66
2021/04/26 02:45:49;;;;;;;0.87;0.77;;;4.20;99.90;;;;;;5107881;27;20717;-67
2021/04/26 02:48:17;;;;;;;0.80;0.80;;;4.20;99.90;;;;;;5121832;27;20803;-67
2021/04/26 02:50:52;;;;;;;0.90;0.60;;;4.20;99.90;;;;;;5111094;27;20337;-67
2021/04/26 02:53:24;;;;;;;1.17;0.77;;;4.20;99.90;;;;;;5111868;27;20659;-67
2021/04/26 02:55:53;;;;;;;0.60;0.60;;;4.20;99.90;;;;;;5110744;27;20249;-67
2021/04/26 02:58:23;;;;;;;1.67;0.70;;;4.20;99.90;;;;;;5103611;28;20192;-68
2021/04/26 03:00:50;;;;;;;0.60;0.60;;;4.20;99.90;;;;;;5105425;27;20231;-67
2021/04/26 03:03:47;;;;;;;0.60;0.60;;;4.20;99.90;;;;;;5045468;28;20313;-67
2021/04/26 03:06:15;;;;;;;0.70;0.70;;;4.20;99.90;;;;;;5045876;28;20808;-67
2021/04/26 03:09:01;;;;;;;1.03;0.80;;;4.20;99.90;;;;;;5045291;28;20324;-67
2021/04/26 03:11:29;;;;;;;0.87;0.60;;;4.20;99.90;;;;;;5026513;28;20351;-67
2021/04/26 03:13:56;;;;;;;2.07;1.03;;;4.20;99.90;;;;;;5027674;28;20280;-67
2021/04/26 03:16:25;;;;;;;0.70;0.70;;;4.20;99.90;;;;;;5045068;28;20198;-67
2021/04/26 03:18:53;;;;;;;0.70;0.70;;;4.20;99.90;;;;;;5042464;28;20201;-68
2021/04/26 03:21:20;;;;;;;1.27;1.17;;;4.20;99.90;;;;;;5034440;28;20271;-68
2021/04/26 03:23:54;;;;;;;0.70;0.70;;;4.10;99.90;;;;;;5025372;28;20229;-68
2021/04/26 03:26:23;;;;;;;1.00;0.93;;;4.10;99.90;;;;;;5032742;28;20320;-68
2021/04/26 03:28:51;;;;;;;1.37;0.80;;;4.10;99.90;;;;;;5044994;28;20198;-67
2021/04/26 03:31:19;;;;;;;1.53;0.80;;;4.10;99.90;;;;;;5044033;28;20689;-68
2021/04/26 03:33:59;;;;;;;1.10;0.90;;;4.10;99.90;;;;;;5042141;28;20205;-68
2021/04/26 03:36:28;;;;;;;0.80;0.70;;;4.10;99.90;;;;;;5034229;28;20194;-67
2021/04/26 03:38:56;;;;;;;0.87;0.70;;;4.10;99.90;;;;;;5029672;28;20194;-67
2021/04/26 03:41:25;;;;;;;1.03;0.90;;;4.10;99.90;;;;;;5105309;28;20226;-67
2021/04/26 03:43:55;;;;;;;1.00;0.80;;;4.20;99.90;;;;;;5106584;28;20230;-67
2021/04/26 03:46:37;;;;;;;1.53;0.90;;;4.20;99.90;;;;;;5102938;28;20263;-67
2021/04/26 03:49:21;;;;;;;1.43;1.10;;;4.20;99.90;;;;;;5108328;28;20215;-67
2021/04/26 03:52:17;;;;;;;0.80;0.80;;;4.20;99.90;;;;;;5096391;28;20202;-68
2021/04/26 03:55:05;;;;;;;1.80;0.90;;;4.20;99.90;;;;;;5107833;28;20204;-67
2021/04/26 03:57:33;;;;;;;0.70;0.70;;;4.20;99.90;;;;;;5111038;28;20199;-68
2021/04/26 04:00:00;;;;;;;1.17;0.93;;;4.30;99.90;;;;;;5108421;28;20193;-67
2021/04/26 04:02:30;;;;;;;0.80;0.80;;;4.30;99.90;;;;;;5108453;28;20605;-68
2021/04/26 04:05:00;;;;;;;0.77;0.77;;;3.80;99.90;;;;;;5106715;28;20230;-67
2021/04/26 04:07:48;;;;;;;0.50;0.50;;;4.30;99.90;;;;;;5104442;28;20295;-68
2021/04/26 04:10:34;;;;;;;0.93;0.80;;;4.40;99.90;;;;;;5109367;28;20222;-68
2021/04/26 04:13:40;;;;;;;0.80;0.80;;;4.40;99.90;;;;;;5104856;28;20194;-67
2021/04/26 04:16:07;;;;;;;0.80;0.80;;;4.40;99.90;;;;;;5106834;28;20196;-67
2021/04/26 04:18:34;;;;;;;1.13;0.90;;;4.50;99.90;;;;;;5107175;28;20213;-67
2021/04/26 04:21:01;;;;;;;1.40;0.93;;;4.50;99.90;;;;;;5106490;28;20210;-67
2021/04/26 04:23:28;;;;;;;1.10;0.87;;;4.50;99.90;;;;;;5111806;28;20244;-67
2021/04/26 04:25:54;;;;;;;2.13;1.20;;;4.50;99.90;;;;;;5106158;28;20323;-66
2021/04/26 04:28:21;;;;;;;1.20;1.10;;;4.60;99.90;;;;;;5106003;28;20241;-66
2021/04/26 04:30:51;;;;;;;1.23;0.97;;;4.70;99.90;;;;;;5106236;28;20204;-67
2021/04/26 04:33:36;;;;;;;1.93;1.00;;;4.80;99.90;;;;;;5108532;28;20253;-66
2021/04/26 04:36:06;;;;;;;3.60;1.27;;;4.80;99.80;;;;;;5108248;28;20200;-67
2021/04/26 04:38:51;;;;;;;1.93;1.20;;;4.90;99.70;;;;;;5109442;27;20226;-68
2021/04/26 04:41:37;;;;;;;2.97;1.30;;;5.00;99.50;;;;;;5113804;28;20612;-66
2021/04/26 04:44:05;;;;;;;3.17;1.30;;;5.00;99.30;;;;;;5113036;28;20246;-66
2021/04/26 04:46:33;;;;;;;1.03;0.90;;;5.00;99.20;;;;;;5116552;27;20207;-67
2021/04/26 04:49:09;;;;;;;1.47;1.07;;;5.00;99.10;;;;;;5114679;28;20203;-67
2021/04/26 04:51:36;;;;;;;1.47;1.20;;;5.10;99.00;;;;;;5119647;28;20206;-66
2021/04/26 04:54:06;;;;;;;0.90;0.90;;;5.10;98.90;;;;;;5108856;27;20195;-66
2021/04/26 04:56:50;;;;;;;1.80;1.03;;;5.20;98.90;;;;;;5121752;28;20194;-66
2021/04/26 04:59:17;;;;;;;1.10;0.90;;;5.20;98.70;;;;;;5112815;27;20238;-67
2021/04/26 05:01:49;;;;;;;2.00;1.10;;;5.30;98.70;;;;;;5122410;27;20201;-66
2021/04/26 05:04:34;;;;;;;2.07;0.77;;;5.30;98.60;;;;;;5112521;27;20280;-67
2021/04/26 05:07:19;;;;;;;3.13;1.30;;;5.30;98.60;;;;;;5111045;28;20223;-67
2021/04/26 05:10:06;;;;;;;2.63;1.50;;;5.40;98.50;;;;;;5111384;27;20207;-67
2021/04/26 05:13:11;;;;;;;1.07;1.00;;;5.40;98.50;;;;;;5028554;28;20289;-67
2021/04/26 05:15:41;;;;;;;2.07;0.90;;;5.50;98.40;;;;;;5026716;28;20233;-67
2021/04/26 05:18:09;;;;;;;2.57;1.20;;;5.60;98.50;;;;;;5027860;28;20745;-67
2021/04/26 05:20:36;;;;;;;2.10;1.10;;;5.70;98.60;;;;;;5027530;28;20201;-67
2021/04/26 05:23:04;;;;;;;1.20;1.10;;;5.70;98.60;;;;;;5028054;28;20206;-68
2021/04/26 05:25:31;;;;;;;0.83;0.80;;;5.80;98.60;;;;;;5009905;28;20609;-67
2021/04/26 05:27:59;;;;;;;2.33;0.80;;;6.00;98.60;;;;;;5028458;28;20630;-67
2021/04/26 05:30:25;;;;;;;1.70;0.90;;;6.10;98.40;;;;;;5025858;28;20211;-67
2021/04/26 05:32:52;;;;;;;1.03;0.97;;;6.30;98.60;;;;;;5011299;28;20194;-67
2021/04/26 05:35:40;;;;;;;1.83;1.20;;;6.40;98.10;;;;;;5005492;28;20783;-67
2021/04/26 05:38:12;;;;;;;2.43;1.40;;;6.60;97.70;;;;;;4990600;28;20208;-67
2021/04/26 05:40:40;;;;;;;2.03;1.30;;;6.80;97.20;;;;;;5006689;28;20290;-67
2021/04/26 05:43:08;;;;;;;1.23;0.90;;;7.20;96.40;;;;;;5011047;28;20210;-67
2021/04/26 05:45:36;;;;;;;4.27;1.30;;;7.60;95.40;;;;;;5025393;28;20752;-67
2021/04/26 05:48:15;;;;;;;2.93;1.10;;;8.20;93.80;;;;;;5035109;28;20547;-66
2021/04/26 05:50:42;;;;;;;2.20;1.30;;;8.80;91.80;;;;;;5027410;28;20206;-67
2021/04/26 05:53:09;;;;;;;1.13;1.00;;;9.50;90.10;;;;;;5026922;28;20215;-67
2021/04/26 05:55:35;;;;;;;1.10;1.10;;;10.30;84.80;;;;;;5026065;28;20205;-67
2021/04/26 05:58:02;;;;;;;1.20;1.07;;;11.20;79.60;;;;;;5009059;28;20266;-67
2021/04/26 06:00:31;;;;;;;1.00;1.00;;;12.50;74.30;;;;;;5025478;28;20637;-67
2021/04/26 06:02:58;;;;;;;2.67;1.60;;;13.70;68.70;;;;;;5025091;28;20290;-67
2021/04/26 06:05:25;;;;;;;4.90;1.63;;;15.00;63.90;;;;;;5026865;28;20222;-67
2021/04/26 06:07:53;;;;;;;6.00;1.73;;;16.00;58.30;;;;;;5026173;28;20210;-67
2021/04/26 06:10:19;;;;;;;3.90;1.70;;;16.80;55.50;;;;;;5026673;28;20208;-67
2021/04/26 06:12:46;;;;;;;1.60;1.50;;;17.50;52.60;;;;;;5073076;27;20205;-68
2021/04/26 06:15:13;;;;;;;1.60;1.50;;;18.20;52.00;;;;;;5109289;28;20189;-68
2021/04/26 06:17:40;;;;;;;3.40;1.27;;;18.80;51.00;;;;;;5108027;27;20219;-68
2021/04/26 06:20:08;;;;;;;1.13;1.03;;;19.40;50.60;;;;;;5109980;27;20199;-68
2021/04/26 06:22:35;;;;;;;1.40;1.33;;;20.00;48.90;;;;;;5109301;28;20284;-68
2021/04/26 06:25:03;;;;;;;2.37;1.30;;;20.70;48.30;;;;;;5109503;28;20253;-68
2021/04/26 06:27:32;;;;;;;2.73;1.20;;;21.30;45.80;;;;;;5101594;27;20205;-67
2021/04/26 06:29:59;;;;;;;4.73;1.03;;;20.70;44.20;;;;;;5117952;27;20202;-67
2021/04/26 06:32:26;;;;;;;3.70;1.30;;;19.60;44.50;;;;;;5110018;27;20681;-67
2021/04/26 06:34:53;;;;;;;3.63;1.30;;;18.90;45.10;;;;;;5116368;27;20194;-67
2021/04/26 06:37:20;;;;;;;2.07;1.20;;;18.00;44.80;;;;;;5124969;27;20254;-67
2021/04/26 06:39:46;;;;;;;3.07;1.20;;;17.20;45.90;;;;;;5127441;27;20216;-67
2021/04/26 06:42:14;;;;;;;4.03;1.43;;;16.60;45.90;;;;;;5114917;27;20508;-67
2021/04/26 06:44:41;;;;;;;1.67;1.00;;;15.70;45.30;;;;;;5106159;27;20767;-67
2021/04/26 06:47:07;;;;;;;1.77;1.20;;;15.00;46.30;;;;;;5105818;27;20280;-67
2021/04/26 06:49:34;;;;;;;1.83;1.30;;;14.50;47.20;;;;;;5108105;27;20197;-68
2021/04/26 06:52:01;;;;;;;13.33;1.97;;;14.70;47.50;;;;;;5095286;28;20604;-68
2021/04/26 06:54:28;;;;;;;5.37;1.90;;;15.70;46.70;;;;;;5115257;27;20555;-67
2021/04/26 06:56:56;;;;;;;5.30;2.50;;;16.80;46.40;;;;;;5106474;27;20191;-68
2021/04/26 06:59:23;;;;;;;3.40;2.47;;;17.80;46.10;;;;;;5108340;27;20193;-68
2021/04/26 07:01:50;;;;;;;5.13;2.03;;;18.60;45.50;;;;;;5111352;27;20608;-69
2021/04/26 07:04:17;;;;;;;3.27;1.77;;;19.50;45.30;;;;;;5104258;27;20275;-68
2021/04/26 07:06:44;;;;;;;4.20;2.13;;;20.20;44.40;;;;;;5104557;28;20206;-68
2021/04/26 07:09:10;;;;;;;5.70;1.80;;;20.60;42.10;;;;;;5100465;27;20497;-68
2021/04/26 07:11:39;;;;;;;7.77;2.20;;;20.50;41.20;;;;;;5103454;27;20555;-69
2021/04/26 07:14:05;;;;;;;2.57;1.93;;;20.50;41.10;;;;;;5105935;27;20196;-69
2021/04/26 07:16:33;;;;;;;5.10;1.83;;;20.50;41.10;;;;;;5104142;27;20698;-68
2021/04/26 07:19:01;;;;;;;2.17;1.80;;;20.70;40.70;;;;;;5105629;28;20667;-68
2021/04/26 07:21:28;;;;;;;2.57;1.97;;;20.90;40.20;;;;;;5102974;27;20195;-68
2021/04/26 07:23:55;;;;;;;2.42;1.85;;;21.00;40.20;;;;;;5103940;27;20873;-68
2021/04/26 07:26:22;;;;;;;4.60;1.90;;;21.20;41.10;;;;;;5104731;27;20241;-69
2021/04/26 07:28:49;;;;;;;2.67;1.80;;;21.70;40.00;;;;;;5104652;27;20570;-69
2021/04/26 07:31:16;;;;;;;6.10;3.30;;;22.30;39.40;;;;;;5104658;27;20616;-68
2021/04/26 07:33:43;;;;;;;3.92;2.30;;;23.40;38.70;;;;;;5104814;28;20229;-69
2021/04/26 07:36:10;;;;;;;5.38;2.55;;;24.60;37.50;;;;;;5105718;28;20199;-68
2021/04/26 07:38:37;;;;;;;7.93;2.47;;;25.70;36.10;;;;;;5104119;27;20207;-68
2021/04/26 07:41:03;;;;;;;6.10;2.30;;;25.00;34.30;;;;;;5105193;28;20256;-68
2021/04/26 07:43:30;;;;;;;3.20;2.10;;;23.20;35.10;;;;;;5105560;28;20241;-68
2021/04/26 07:45:57;;;;;;;2.33;2.10;;;21.30;36.30;;;;;;5104200;28;20225;-69
2021/04/26 07:48:24;;;;;;;2.03;1.70;;;19.90;37.70;;;;;;5104050;28;20765;-68
2021/04/26 07:50:51;;;;;;;3.63;2.20;;;19.00;38.80;;;;;;5105513;28;20595;-67
2021/04/26 07:53:18;;;;;;;1.93;1.63;;;18.10;40.00;;;;;;5099958;28;20265;-68
2021/04/26 07:55:44;;;;;;;2.63;1.83;;;17.00;41.00;;;;;;5103120;28;20446;-67
2021/04/26 07:58:11;;;;;;;5.67;1.83;;;16.20;42.30;;;;;;5105001;28;20615;-67
2021/04/26 08:00:38;;;;;;;4.83;1.93;;;15.30;42.90;;;;;;5103561;28;20233;-68
2021/04/26 08:03:05;;;;;;;3.40;2.10;;;14.50;43.80;;;;;;5101903;28;20462;-67
2021/04/26 08:05:32;;;;;;;1.93;1.77;;;14.00;45.20;;;;;;5102975;28;20727;-67
2021/04/26 08:08:02;;;;;;;1.87;1.50;;;13.90;46.20;;;;;;5105642;28;20207;-67
2021/04/26 08:10:32;;;;;;;4.50;1.90;;;15.80;46.40;;;;;;5103464;28;20205;-69
2021/04/26 08:12:59;;;;;;;7.47;1.70;;;19.30;44.00;;;;;;5104630;28;20202;-70
2021/04/26 08:15:26;;;;;;;2.53;1.53;;;21.80;40.40;;;;;;5104904;28;20244;-71
2021/04/26 08:17:53;;;;;;;1.63;1.52;;;23.90;39.40;;;;;;5102952;28;20283;-71
2021/04/26 08:20:21;;;;;;;3.00;1.88;;;26.30;37.10;;;;;;5104248;28;20196;-71
2021/04/26 08:22:47;;;;;;;3.63;2.38;;;27.60;34.30;;;;;;5104091;28;20655;-71
2021/04/26 08:25:18;;;;;;;5.97;1.88;;;26.80;32.90;;;;;;5104099;28;20250;-71
2021/04/26 08:27:44;;;;;;;3.95;1.58;;;24.60;34.00;;;;;;5059122;28;20445;-71
2021/04/26 08:30:12;;;;;;;3.38;1.70;;;22.20;35.20;;;;;;5054690;28;20212;-70
2021/04/26 08:32:39;;;;;;;2.75;1.75;;;20.40;36.70;;;;;;5058601;28;20195;-70
2021/04/26 08:35:07;;;;;;;2.53;1.60;;;18.90;38.00;;;;;;5059467;28;20696;-71
2021/04/26 08:37:34;;;;;;;4.80;1.90;;;17.70;39.10;;;;;;5060797;28;20205;-70
2021/04/26 08:40:01;;;;;;;2.03;1.83;;;16.90;40.40;;;;;;5055322;28;20197;-70
2021/04/26 08:42:28;;;;;;;2.90;2.30;;;16.60;41.50;;;;;;5059487;28;20204;-70
2021/04/26 08:44:55;;;;;;;4.50;2.07;;;18.40;41.90;;;;;;5060261;28;20716;-70
2021/04/26 08:47:25;;;;;;;1.60;1.50;;;20.10;39.40;;;;;;5064048;28;20668;-70
2021/04/26 08:49:55;;;;;;;5.67;1.90;;;20.00;38.20;;;;;;5059468;28;20189;-71
2021/04/26 08:52:22;;;;;;;2.20;2.00;;;19.40;37.30;;;;;;5060517;28;20256;-70
2021/04/26 08:54:49;;;;;;;5.37;2.50;;;18.40;37.30;;;;;;5059187;28;20831;-70
2021/04/26 08:57:16;;;;;;;5.77;2.40;;;17.40;37.90;;;;;;5082281;28;20205;-70
2021/04/26 08:59:45;;;;;;;7.63;2.00;;;16.60;38.50;;;;;;5055325;28;20682;-70
2021/04/26 09:02:12;;;;;;;4.67;1.70;;;15.90;38.90;;;;;;5059229;28;20228;-70
2021/04/26 09:04:48;;;;;;;3.50;1.20;;;15.10;39.60;;;;;;5077496;28;20226;-70
2021/04/26 09:07:14;;;;;;;1.53;1.40;;;14.30;40.60;;;;;;5060313;28;20259;-70
2021/04/26 09:09:43;;;;;;;3.23;1.27;;;13.70;41.90;;;;;;5062689;28;20196;-70
2021/04/26 09:12:12;;;;;;;2.23;1.00;;;13.20;43.50;;;;;;5068589;28;20202;-70
2021/04/26 09:14:40;;;;;;;1.63;1.10;;;12.60;44.60;;;;;;5057270;28;20221;-69
2021/04/26 09:17:30;;;;;;;6.10;1.37;;;12.30;45.90;;;;;;5061902;28;20198;-69
2021/04/26 09:19:59;;;;;;;4.03;1.00;;;12.20;47.00;;;;;;5071652;28;20537;-70
2021/04/26 09:22:43;;;;;;;1.83;0.70;;;12.30;47.70;;;;;;5071148;28;20235;-69
2021/04/26 09:25:27;;;;;;;1.17;1.00;;;12.50;47.40;;;;;;5060869;28;20225;-69
2021/04/26 09:27:56;;;;;;;2.30;0.80;;;12.70;46.90;;;;;;5063816;28;20207;-69
2021/04/26 09:30:46;;;;;;;0.80;0.60;;;13.10;46.80;;;;;;5058350;28;20201;-69
2021/04/26 09:33:30;;;;;;;0.87;0.50;;;13.60;46.20;;;;;;5060063;28;20200;-70
2021/04/26 09:36:15;;;;;;;1.93;0.77;;;13.10;46.20;;;;;;5060194;28;20251;-70
2021/04/26 09:38:44;;;;;;;0.40;0.40;;;12.60;47.00;;;;;;5053038;28;20252;-70
2021/04/26 09:41:17;;;;;;;0.40;0.40;;;12.20;47.60;;;;;;5078099;28;20270;-69
2021/04/26 09:43:45;;;;;;;0.40;0.40;;;12.00;48.20;;;;;;5057172;28;20661;-70
2021/04/26 09:46:13;;;;;;;0.40;0.40;;;11.90;48.60;;;;;;5061312;28;20776;-69
2021/04/26 09:48:41;;;;;;;0.50;0.50;;;11.80;48.70;;;;;;5057209;28;20211;-69
2021/04/26 09:51:09;;;;;;;0.90;0.70;;;11.80;48.80;;;;;;5065347;28;20324;-70
2021/04/26 09:53:47;;;;;;;1.67;0.90;;;11.70;49.30;;;;;;5066111;28;20280;-70
2021/04/26 09:56:15;;;;;;;1.00;0.80;;;11.60;49.70;;;;;;5064893;28;20325;-69
2021/04/26 09:58:43;;;;;;;2.70;1.00;;;11.30;50.00;;;;;;5058038;28;20219;-70
2021/04/26 10:01:10;;;;;;;3.30;0.80;;;11.10;50.30;;;;;;5057527;28;20446;-71
2021/04/26 10:03:36;;;;;;;1.43;0.80;;;11.00;50.80;;;;;;5054111;28;20303;-69
2021/04/26 10:06:05;;;;;;;2.23;0.87;;;10.80;51.10;;;;;;5055364;28;20218;-70
2021/04/26 10:08:31;;;;;;;1.23;0.90;;;10.60;51.60;;;;;;5062339;28;20230;-70
2021/04/26 10:10:59;;;;;;;5.63;2.10;;;10.80;52.30;;;;;;5055569;28;20541;-70
2021/04/26 10:13:26;;;;;;;13.97;3.27;;;11.70;52.50;;;;;;5057293;28;20244;-69
2021/04/26 10:15:58;;;;;;;14.10;2.33;;;13.50;51.60;;;;;;5055887;28;20189;-70
2021/04/26 10:18:33;;;;;;;6.40;1.90;;;14.20;48.90;;;;;;5075338;28;20210;-70
2021/04/26 10:21:00;;;;;;;5.10;1.77;;;13.80;48.00;;;;;;5054241;28;20196;-70
2021/04/26 10:23:39;;;;;;;3.17;1.97;;;13.40;48.30;;;;;;5058574;28;20211;-70
2021/04/26 10:26:06;;;;;;;3.03;1.00;;;13.10;48.20;;;;;;5073887;28;20245;-69
2021/04/26 10:28:34;;;;;;;2.27;0.93;;;12.60;48.00;;;;;;5104296;28;20488;-71
2021/04/26 10:31:11;;;;;;;4.77;1.00;;;12.10;48.20;;;;;;5104582;27;20505;-70
2021/04/26 10:34:06;;;;;;;1.17;0.70;;;11.70;48.50;;;;;;5106653;28;20213;-69
2021/04/26 10:36:53;;;;;;;2.30;1.00;;;12.00;49.20;;;;;;5100915;28;20204;-70
2021/04/26 10:39:23;;;;;;;6.47;0.90;;;14.70;48.00;;;;;;5104558;27;20180;-68
2021/04/26 10:42:01;;;;;;;1.93;0.70;;;17.40;44.90;;;;;;5105088;27;20234;-71
2021/04/26 10:44:54;;;;;;;1.60;0.93;;;19.70;41.80;;;;;;5105700;27;20201;-69
2021/04/26 10:47:33;;;;;;;0.60;0.60;;;21.30;39.30;;;;;;5104623;28;20199;-70
2021/04/26 10:50:36;;;;;;;4.33;0.60;;;22.40;37.10;;;;;;5100533;28;20638;-69
2021/04/26 10:53:05;;;;;;;1.60;1.00;;;23.50;36.40;;;;;;5103112;27;20667;-69
2021/04/26 10:55:49;;;;;;;1.20;0.80;;;24.10;34.80;;;;;;5118543;27;20204;-69
2021/04/26 10:58:39;;;;;;;0.80;0.80;;;21.80;33.50;;;;;;5105438;28;21206;-70
2021/04/26 11:01:07;;;;;;;2.30;0.70;;;21.50;34.20;;;;;;5104255;27;20279;-70
2021/04/26 11:03:40;;;;;;;52.30;2.27;;;19.50;35.10;;;;;;5105205;28;20210;-70
2021/04/26 11:06:26;;;;;;;7.07;1.83;;;17.80;35.90;;;;;;5105877;27;20251;-70
2021/04/26 11:09:08;;;;;;;12.70;1.90;;;16.60;37.60;;;;;;5105860;27;20547;-69
2021/04/26 11:14:30;;;;;;;3.00;0.90;;;14.70;39.80;;;;;;5103765;28;20208;-70
2021/04/26 11:17:08;;;;;;;1.37;0.70;;;14.20;41.00;;;;;;5102239;27;20965;-71
2021/04/26 11:20:08;;;;;;;1.27;0.63;;;14.40;41.70;;;;;;5103290;27;20549;-70
2021/04/26 11:22:36;;;;;;;2.80;0.93;;;15.70;41.90;;;;;;5103249;27;20296;-70
2021/04/26 11:25:04;;;;;;;0.80;0.70;;;17.50;39.90;;;;;;5104144;28;20280;-70
2021/04/26 11:27:34;;;;;;;1.83;0.60;;;18.60;38.30;;;;;;5103823;28;20239;-71
2021/04/26 11:30:30;;;;;;;0.70;0.70;;;19.60;37.40;;;;;;5096577;27;20206;-70
2021/04/26 11:33:12;;;;;;;1.33;0.90;;;20.50;36.30;;;;;;5106124;28;20195;-70
2021/04/26 11:36:20;;;;;;;2.80;0.70;;;20.90;35.10;;;;;;5102648;27;20431;-71
2021/04/26 11:38:47;;;;;;;0.80;0.80;;;20.80;33.30;;;;;;5037357;28;20436;-72
2021/04/26 11:41:15;;;;;;;0.73;0.60;;;20.70;33.50;;;;;;5036689;28;20782;-72
2021/04/26 11:43:51;;;;;;;3.00;0.60;;;20.80;32.90;;;;;;5022062;28;20279;-69
2021/04/26 11:46:28;;;;;;;1.80;0.70;;;20.00;32.50;;;;;;5036747;28;20238;-70
2021/04/26 11:49:20;;;;;;;1.43;0.80;;;18.80;32.50;;;;;;5035713;28;20211;-70
2021/04/26 11:51:49;;;;;;;5.10;1.33;;;17.30;34.00;;;;;;5036695;28;20205;-70
2021/04/26 11:54:18;;;;;;;3.60;1.10;;;16.20;35.90;;;;;;5038975;28;20205;-69
2021/04/26 11:57:00;;;;;;;1.77;0.90;;;15.30;37.60;;;;;;5036132;28;20222;-70
2021/04/26 11:59:28;;;;;;;4.17;0.87;;;14.50;39.00;;;;;;5035225;28;20959;-69
2021/04/26 12:01:55;;;;;;;0.70;0.70;;;13.90;39.80;;;;;;5037154;28;20221;-70
2021/04/26 12:04:37;;;;;;;2.17;1.37;;;13.40;40.60;;;;;;5030312;28;20237;-70
2021/04/26 12:07:04;;;;;;;2.40;1.13;;;13.10;41.40;;;;;;5034526;28;20198;-69
2021/04/26 12:09:31;;;;;;;2.03;1.30;;;12.70;41.50;;;;;;5018870;28;20439;-71
2021/04/26 12:12:00;;;;;;;3.77;1.50;;;12.60;41.90;;;;;;5035670;28;20681;-70
2021/04/26 12:14:28;;;;;;;2.10;0.97;;;12.60;42.50;;;;;;5045877;28;20207;-71
2021/04/26 12:17:18;;;;;;;1.33;0.80;;;12.60;42.90;;;;;;5105088;28;20208;-71
2021/04/26 12:19:46;;;;;;;0.67;0.67;;;12.70;42.90;;;;;;5104783;28;20200;-71
2021/04/26 12:22:13;;;;;;;3.37;1.00;;;12.80;43.10;;;;;;5109565;28;20231;-71
2021/04/26 12:24:41;;;;;;;0.80;0.80;;;12.80;43.40;;;;;;5108139;28;20489;-71
2021/04/26 12:27:09;;;;;;;2.50;1.10;;;12.80;42.90;;;;;;5107271;28;20235;-71
2021/04/26 12:29:37;;;;;;;1.90;0.90;;;12.90;43.30;;;;;;5106555;28;20708;-71
2021/04/26 12:32:18;;;;;;;1.10;0.60;;;12.60;43.80;;;;;;5106328;27;20203;-70
2021/04/26 12:35:07;;;;;;;2.10;0.50;;;12.50;44.60;;;;;;5108751;28;20510;-71
2021/04/26 12:37:36;;;;;;;3.20;0.80;;;12.20;44.50;;;;;;5045892;28;20442;-70
2021/04/26 12:40:22;;;;;;;8.63;1.73;;;12.10;44.70;;;;;;5064838;28;20525;-72
2021/04/26 12:42:50;;;;;;;4.95;1.73;;;12.00;44.70;;;;;;5064118;28;20505;-71
2021/04/26 12:45:22;;;;;;;1.63;0.90;;;12.00;45.30;;;;;;5059649;28;20437;-71
2021/04/26 12:47:54;;;;;;;1.50;0.70;;;12.10;45.90;;;;;;5047574;28;20536;-70
2021/04/26 12:50:24;;;;;;;4.73;0.80;;;12.10;46.60;;;;;;5064398;28;20206;-71
2021/04/26 12:53:15;;;;;;;3.57;0.80;;;12.00;46.60;;;;;;5063885;28;20866;-71
2021/04/26 12:55:51;;;;;;;4.97;1.70;;;11.90;46.20;;;;;;5064810;28;20211;-71
2021/04/26 12:58:20;;;;;;;1.33;0.97;;;11.70;45.70;;;;;;5064217;28;20204;-71
2021/04/26 13:00:50;;;;;;;2.90;1.10;;;11.60;46.50;;;;;;5045026;28;20497;-71
2021/04/26 13:03:32;;;;;;;0.70;0.70;;;11.40;46.60;;;;;;5049085;28;20765;-71
2021/04/26 13:06:02;;;;;;;2.37;0.83;;;11.20;47.20;;;;;;5058192;28;20246;-71
2021/04/26 13:08:30;;;;;;;1.30;0.80;;;10.90;48.10;;;;;;5046590;28;20458;-71
2021/04/26 13:11:00;;;;;;;0.60;0.60;;;10.70;49.10;;;;;;5046843;28;20226;-71
2021/04/26 13:13:28;;;;;;;1.43;0.73;;;10.50;49.60;;;;;;5063574;28;20256;-70
2021/04/26 13:15:56;;;;;;;7.47;0.70;;;10.30;50.00;;;;;;5105637;27;20199;-71
2021/04/26 13:18:26;;;;;;;2.83;0.63;;;10.20;49.70;;;;;;5106236;27;20447;-70